createdAt,value
2022-12-08T00:01:20.463Z,5.68
2022-12-08T00:03:47.750Z,4.47
2022-12-08T00:06:43.915Z,4.28
2022-12-08T00:09:27.286Z,4.88
2022-12-08T00:12:01.062Z,4.60
2022-12-08T00:14:32.154Z,6.90
2022-12-08T00:17:00.005Z,4.93
2022-12-08T00:19:27.574Z,3.08
2022-12-08T00:21:54.604Z,4.72
2022-12-08T00:24:22.351Z,5.30
2022-12-08T00:26:49.726Z,4.18
2022-12-08T00:29:17.809Z,5.72
2022-12-08T00:31:44.986Z,6.20
2022-12-08T00:34:13.205Z,5.30
2022-12-08T00:36:40.258Z,6.18
2022-12-08T00:39:06.930Z,5.28
2022-12-08T00:41:52.287Z,5.20
2022-12-08T00:44:19.355Z,8.00
2022-12-08T00:46:47.342Z,5.13
2022-12-08T00:49:14.733Z,4.38
2022-12-08T00:51:42.391Z,6.25
2022-12-08T00:54:09.586Z,3.97
2022-12-08T00:56:36.849Z,8.02
2022-12-08T00:59:04.878Z,5.55
2022-12-08T01:01:31.813Z,4.30
2022-12-08T01:03:58.681Z,3.70
2022-12-08T01:06:25.339Z,3.92
2022-12-08T01:08:51.986Z,4.20
2022-12-08T01:11:19.657Z,3.90
2022-12-08T01:13:47.243Z,3.88
2022-12-08T01:16:28.837Z,4.80
2022-12-08T01:18:57.423Z,3.85
2022-12-08T01:21:24.343Z,5.25
2022-12-08T01:23:51.246Z,6.68
2022-12-08T01:26:19.118Z,3.17
2022-12-08T01:28:46.715Z,4.40
2022-12-08T01:31:16.698Z,5.70
2022-12-08T01:33:43.932Z,5.05
2022-12-08T01:36:31.623Z,4.78
2022-12-08T01:39:00.754Z,2.45
2022-12-08T01:41:30.936Z,4.78
2022-12-08T01:44:23.614Z,2.17
2022-12-08T01:46:51.627Z,3.17
2022-12-08T01:49:22.487Z,8.73
2022-12-08T01:51:54.710Z,4.70
2022-12-08T01:54:24.884Z,2.10
2022-12-08T01:57:15.143Z,3.88
2022-12-08T01:59:48.276Z,4.47
2022-12-08T02:02:15.234Z,3.40
2022-12-08T02:04:42.091Z,3.75
2022-12-08T02:07:09.994Z,3.60
2022-12-08T02:09:37.793Z,2.97
2022-12-08T02:12:04.771Z,3.55
2022-12-08T02:14:32.220Z,5.40
2022-12-08T02:17:23.390Z,3.55
2022-12-08T02:20:12.102Z,4.05
2022-12-08T02:23:03.213Z,3.72
2022-12-08T02:25:47.082Z,5.93
2022-12-08T02:28:38.023Z,5.05
2022-12-08T02:31:32.287Z,5.88
2022-12-08T02:34:08.369Z,7.65
2022-12-08T02:37:03.286Z,6.93
2022-12-08T02:39:57.748Z,7.63
2022-12-08T02:42:47.131Z,6.43
2022-12-08T02:45:16.817Z,8.00
2022-12-08T02:47:45.065Z,8.40
2022-12-08T02:50:12.851Z,7.07
2022-12-08T02:52:49.274Z,6.68
2022-12-08T02:55:21.511Z,8.02
2022-12-08T02:58:14.341Z,8.38
2022-12-08T03:01:08.560Z,9.40
2022-12-08T03:03:54.611Z,5.82
2022-12-08T03:06:32.462Z,8.82
2022-12-08T03:09:08.467Z,7.22
2022-12-08T03:11:49.640Z,5.55
2022-12-08T03:14:17.887Z,4.97
2022-12-08T03:16:48.319Z,5.43
2022-12-08T03:19:19.968Z,5.63
2022-12-08T03:22:02.848Z,5.07
2022-12-08T03:27:02.116Z,7.45
2022-12-08T03:29:30.146Z,4.88
2022-12-08T03:32:01.289Z,4.95
2022-12-08T03:34:30.246Z,4.80
2022-12-08T03:36:57.114Z,5.20
2022-12-08T03:39:23.773Z,4.25
2022-12-08T03:41:50.453Z,4.40
2022-12-08T03:44:17.209Z,5.95
2022-12-08T03:46:43.942Z,6.45
2022-12-08T03:49:10.707Z,2.50
2022-12-08T03:51:37.596Z,4.00
2022-12-08T03:54:04.507Z,2.40
2022-12-08T03:56:32.878Z,3.97
2022-12-08T03:58:59.945Z,1.60
2022-12-08T04:01:27.490Z,3.65
2022-12-08T04:03:54.440Z,1.58
2022-12-08T04:06:22.218Z,1.23
2022-12-08T04:08:49.631Z,3.60
2022-12-08T04:11:17.084Z,2.15
2022-12-08T04:13:44.174Z,1.10
2022-12-08T04:16:20.052Z,0.50
2022-12-08T04:18:47.239Z,1.00
2022-12-08T04:21:14.382Z,2.10
2022-12-08T04:23:41.558Z,1.95
2022-12-08T04:26:08.630Z,1.35
2022-12-08T04:28:35.394Z,2.55
2022-12-08T04:31:02.621Z,3.67
2022-12-08T04:33:29.438Z,4.78
2022-12-08T04:35:56.148Z,2.13
2022-12-08T04:38:22.906Z,1.30
2022-12-08T04:40:49.605Z,2.08
2022-12-08T04:43:16.278Z,2.13
2022-12-08T04:45:43.232Z,3.53
2022-12-08T04:48:13.145Z,3.78
2022-12-08T04:50:42.038Z,2.75
2022-12-08T04:53:09.918Z,3.95
2022-12-08T04:55:41.898Z,4.20
2022-12-08T04:58:11.350Z,3.65
2022-12-08T05:00:37.982Z,4.68
2022-12-08T05:03:04.860Z,6.00
2022-12-08T05:05:31.599Z,4.68
2022-12-08T05:07:58.298Z,3.22
2022-12-08T05:10:25.006Z,4.45
2022-12-08T05:12:51.754Z,2.88
2022-12-08T05:15:18.533Z,5.38
2022-12-08T05:17:45.166Z,2.08
2022-12-08T05:20:12.178Z,3.88
2022-12-08T05:22:38.902Z,2.97
2022-12-08T05:25:05.862Z,7.30
2022-12-08T05:27:32.565Z,5.75
2022-12-08T05:29:59.227Z,1.25
2022-12-08T05:32:25.876Z,3.15
2022-12-08T05:34:52.585Z,2.72
2022-12-08T05:37:19.322Z,4.78
2022-12-08T05:39:46.017Z,2.00
2022-12-08T05:42:12.698Z,3.00
2022-12-08T05:44:39.393Z,1.77
2022-12-08T05:47:06.294Z,2.63
2022-12-08T05:49:33.034Z,4.35
2022-12-08T05:51:59.735Z,2.55
2022-12-08T05:54:26.479Z,2.92
2022-12-08T05:56:53.205Z,1.13
2022-12-08T05:59:19.917Z,2.50
2022-12-08T06:01:46.671Z,2.05
2022-12-08T06:04:13.401Z,4.53
2022-12-08T06:06:40.049Z,3.03
2022-12-08T06:09:06.799Z,1.60
2022-12-08T06:11:33.778Z,4.38
2022-12-08T06:14:00.980Z,1.73
2022-12-08T06:16:28.441Z,3.83
2022-12-08T06:18:56.202Z,2.17
2022-12-08T06:21:23.100Z,1.20
2022-12-08T06:23:51.840Z,2.28
2022-12-08T06:26:19.635Z,4.57
2022-12-08T06:28:46.687Z,3.90
2022-12-08T06:31:22.767Z,3.92
2022-12-08T06:33:50.172Z,1.40
2022-12-08T06:36:19.148Z,1.10
2022-12-08T06:38:46.328Z,2.28
2022-12-08T06:41:13.734Z,1.30
2022-12-08T06:43:41.306Z,2.45
2022-12-08T06:46:11.404Z,0.70
2022-12-08T06:48:38.310Z,3.13
2022-12-08T06:51:17.322Z,0.80
2022-12-08T06:53:44.573Z,2.20
2022-12-08T06:56:12.489Z,4.35
2022-12-08T06:58:39.562Z,1.48
2022-12-08T07:01:12.454Z,1.27
2022-12-08T07:03:40.118Z,1.23
2022-12-08T07:06:07.186Z,2.17
2022-12-08T07:08:34.699Z,1.20
2022-12-08T07:11:07.653Z,3.05
2022-12-08T07:13:36.871Z,3.72
2022-12-08T07:16:12.023Z,1.60
2022-12-08T07:18:39.658Z,5.45
2022-12-08T07:21:08.566Z,3.13
2022-12-08T07:23:35.866Z,4.15
2022-12-08T07:26:03.627Z,4.15
2022-12-08T07:28:35.850Z,6.68
2022-12-08T07:31:02.609Z,1.90
2022-12-08T07:33:29.437Z,2.10
2022-12-08T07:36:02.868Z,1.77
2022-12-08T07:38:30.109Z,2.03
2022-12-08T07:40:57.122Z,1.63
2022-12-08T07:43:23.982Z,1.90
2022-12-08T07:45:50.812Z,2.10
2022-12-08T07:48:18.101Z,1.63
2022-12-08T07:50:45.545Z,3.75
2022-12-08T07:53:12.766Z,1.88
2022-12-08T07:55:40.652Z,1.65
2022-12-08T07:58:07.566Z,2.55
2022-12-08T08:00:34.421Z,3.17
2022-12-08T08:03:01.297Z,1.20
2022-12-08T08:05:28.080Z,2.30
2022-12-08T08:07:54.864Z,1.27
2022-12-08T08:10:21.685Z,4.55
2022-12-08T08:12:48.382Z,1.88
2022-12-08T08:15:15.183Z,1.98
2022-12-08T08:17:41.987Z,3.08
2022-12-08T08:20:09.285Z,1.80
2022-12-08T08:22:36.926Z,1.70
2022-12-08T08:25:04.141Z,1.85
2022-12-08T08:27:30.834Z,1.73
2022-12-08T08:29:57.477Z,1.77
2022-12-08T08:32:24.113Z,1.15
2022-12-08T08:34:51.762Z,6.20
2022-12-08T08:37:18.536Z,1.20
2022-12-08T08:39:45.382Z,1.48
2022-12-08T08:42:12.078Z,3.42
2022-12-08T08:44:38.974Z,1.77
2022-12-08T08:47:05.862Z,1.58
2022-12-08T08:49:32.822Z,2.00
2022-12-08T08:51:59.578Z,3.33
2022-12-08T08:54:28.075Z,2.75
2022-12-08T08:56:54.880Z,0.75
2022-12-08T08:59:21.576Z,1.00
2022-12-08T09:01:48.330Z,0.98
2022-12-08T09:04:15.169Z,0.70
2022-12-08T09:06:43.186Z,0.65
2022-12-08T09:09:09.859Z,0.93
2022-12-08T09:11:37.021Z,1.40
2022-12-08T09:14:04.141Z,0.95
2022-12-08T09:16:30.935Z,0.65
2022-12-08T09:18:57.693Z,0.60
2022-12-08T09:21:26.282Z,0.63
2022-12-08T09:23:55.520Z,0.57
2022-12-08T09:26:23.174Z,1.15
2022-12-08T09:28:54.176Z,1.95
2022-12-08T09:31:22.549Z,1.90
2022-12-08T09:33:51.662Z,0.93
2022-12-08T09:36:18.658Z,1.90
2022-12-08T09:38:46.533Z,0.63
2022-12-08T09:42:01.694Z,1.05
2022-12-08T09:44:44.294Z,1.55
2022-12-08T09:47:22.639Z,1.40
2022-12-08T09:50:07.556Z,2.45
2022-12-08T09:52:42.498Z,2.67
2022-12-08T09:55:39.887Z,1.13
2022-12-08T09:58:15.641Z,2.38
2022-12-08T10:00:42.359Z,0.57
2022-12-08T10:03:16.408Z,1.98
2022-12-08T10:06:07.277Z,2.55
2022-12-08T10:08:45.432Z,2.15
2022-12-08T10:11:17.785Z,1.23
2022-12-08T10:14:00.398Z,1.15
2022-12-08T10:16:35.588Z,1.88
2022-12-08T10:19:10.814Z,4.55
2022-12-08T10:21:39.252Z,1.77
2022-12-08T10:24:13.698Z,2.50
2022-12-08T10:26:40.425Z,2.70
2022-12-08T10:29:12.614Z,2.03
2022-12-08T10:31:39.416Z,1.85
2022-12-08T10:34:17.330Z,2.92
2022-12-08T10:36:56.216Z,2.10
2022-12-08T10:39:45.605Z,3.10
2022-12-08T10:42:19.679Z,1.92
2022-12-08T10:44:58.253Z,2.30
2022-12-08T10:47:27.310Z,2.83
2022-12-08T10:50:09.454Z,1.98
2022-12-08T10:52:40.680Z,2.17
2022-12-08T10:55:21.146Z,1.83
2022-12-08T10:57:50.925Z,3.42
2022-12-08T11:00:28.738Z,2.08
2022-12-08T11:03:18.451Z,0.57
2022-12-08T11:05:45.200Z,2.92
2022-12-08T11:08:11.953Z,1.05
2022-12-08T11:10:44.239Z,0.70
2022-12-08T11:13:27.207Z,1.95
2022-12-08T11:18:31.086Z,0.70
2022-12-08T11:21:07.576Z,1.45
2022-12-08T11:23:36.717Z,2.60
2022-12-08T11:26:11.681Z,0.55
2022-12-08T11:28:38.966Z,2.30
2022-12-08T11:31:17.308Z,2.10
2022-12-08T11:33:45.393Z,1.52
2022-12-08T11:36:15.384Z,1.25
2022-12-08T11:38:46.370Z,1.60
2022-12-08T11:41:18.562Z,1.13
2022-12-08T11:44:22.526Z,1.92
2022-12-08T11:46:59.967Z,2.28
2022-12-08T11:49:35.828Z,4.78
2022-12-08T11:52:12.110Z,3.30
2022-12-08T11:55:04.431Z,0.90
2022-12-08T11:57:31.289Z,1.03
2022-12-08T12:00:00.775Z,1.48
2022-12-08T12:02:30.801Z,2.10
2022-12-08T12:05:09.934Z,1.65
2022-12-08T12:07:55.716Z,4.55
2022-12-08T12:10:44.482Z,1.65
2022-12-08T12:13:27.743Z,1.58
2022-12-08T12:16:16.086Z,2.15
2022-12-08T12:18:51.059Z,3.08
2022-12-08T12:21:28.175Z,2.03
2022-12-08T12:24:25.165Z,4.93
2022-12-08T12:27:14.758Z,1.25
2022-12-08T12:29:55.313Z,0.80
2022-12-08T12:32:23.182Z,1.27
2022-12-08T12:35:00.670Z,1.55
2022-12-08T12:37:39.812Z,1.60
2022-12-08T12:40:23.729Z,1.20
2022-12-08T12:42:56.537Z,3.50
2022-12-08T12:45:34.009Z,1.45
2022-12-08T12:48:00.673Z,3.08
2022-12-08T12:50:43.319Z,3.10
2022-12-08T12:53:16.348Z,1.63
2022-12-08T12:55:46.042Z,2.28
2022-12-08T12:58:37.483Z,1.60
2022-12-08T13:01:13.148Z,1.50
2022-12-08T13:03:43.449Z,1.40
2022-12-08T13:06:15.638Z,1.10
2022-12-08T13:08:52.021Z,1.83
2022-12-08T13:11:19.083Z,1.63
2022-12-08T13:14:04.304Z,0.90
2022-12-08T13:16:40.488Z,1.80
2022-12-08T13:19:15.698Z,1.98
2022-12-08T13:21:42.701Z,1.98
2022-12-08T13:24:26.776Z,1.10
2022-12-08T13:27:05.554Z,0.80
2022-12-08T13:29:39.952Z,2.00
2022-12-08T13:32:09.760Z,0.82
2022-12-08T13:34:59.019Z,0.80
2022-12-08T13:37:30.946Z,2.03
2022-12-08T13:40:11.181Z,5.75
2022-12-08T13:42:42.622Z,3.30
2022-12-08T13:45:27.941Z,2.78
2022-12-08T13:48:30.124Z,3.45
2022-12-08T13:53:22.482Z,5.45
2022-12-08T13:55:12.240Z,4.05
2022-12-08T13:57:14.576Z,2.92
2022-12-08T13:59:45.608Z,2.58
2022-12-08T14:02:35.816Z,2.58
2022-12-08T14:05:34.927Z,4.38
2022-12-08T14:07:53.547Z,4.45
2022-12-08T14:10:25.823Z,8.98
2022-12-08T14:12:57.123Z,4.75
2022-12-08T14:15:25.959Z,4.40
2022-12-08T14:17:54.979Z,2.78
2022-12-08T14:20:28.033Z,3.65
2022-12-08T14:22:55.390Z,2.80
2022-12-08T14:25:23.415Z,4.93
2022-12-08T14:27:56.271Z,5.15
2022-12-08T14:30:30.569Z,5.47
2022-12-08T14:32:59.432Z,3.92
2022-12-08T14:35:36.878Z,3.42
2022-12-08T14:38:09.676Z,5.10
2022-12-08T14:40:47.570Z,5.07
2022-12-08T14:43:19.815Z,4.63
2022-12-08T14:45:48.861Z,5.05
2022-12-08T14:48:25.711Z,4.60
2022-12-08T14:50:55.469Z,4.57
2022-12-08T14:53:22.611Z,3.20
2022-12-08T14:55:50.455Z,4.95
2022-12-08T14:58:37.390Z,3.47
2022-12-08T15:01:08.286Z,3.88
2022-12-08T15:03:36.403Z,3.10
2022-12-08T15:06:07.931Z,3.45
2022-12-08T15:08:55.793Z,3.42
2022-12-08T15:11:22.467Z,2.63
2022-12-08T15:13:51.587Z,3.40
2022-12-08T15:16:42.810Z,7.38
2022-12-08T15:19:29.590Z,6.90
2022-12-08T15:22:17.725Z,5.63
2022-12-08T15:24:44.478Z,4.90
2022-12-08T15:27:18.508Z,3.35
2022-12-08T15:29:47.532Z,4.57
2022-12-08T15:32:18.941Z,4.10
2022-12-08T15:34:45.765Z,11.43
2022-12-08T15:37:18.838Z,5.53
2022-12-08T15:39:45.590Z,5.68
2022-12-08T15:42:13.280Z,6.57
2022-12-08T15:44:40.383Z,3.97
2022-12-08T15:47:17.680Z,5.22
2022-12-08T15:49:45.458Z,4.28
2022-12-08T15:52:18.248Z,8.77
2022-12-08T15:54:45.058Z,5.38
2022-12-08T15:58:17.128Z,5.78
2022-12-08T16:00:51.001Z,4.43
2022-12-08T16:04:13.861Z,4.70
2022-12-08T16:09:34.144Z,7.47
2022-12-08T16:12:19.683Z,7.63
2022-12-08T16:15:49.629Z,6.68
2022-12-08T16:17:34.818Z,6.20
2022-12-08T16:20:02.302Z,9.20
2022-12-08T16:25:20.576Z,6.00
2022-12-08T16:28:29.524Z,3.60
2022-12-08T16:30:37.916Z,11.00
2022-12-08T16:33:05.255Z,5.75
2022-12-08T16:35:31.974Z,5.80
2022-12-08T16:37:58.763Z,3.88
2022-12-08T16:40:25.695Z,5.90
2022-12-08T16:42:52.810Z,4.38
2022-12-08T16:45:22.209Z,5.88
2022-12-08T16:47:54.661Z,11.98
2022-12-08T16:50:32.840Z,8.30
2022-12-08T16:53:02.851Z,6.10
2022-12-08T16:55:29.880Z,7.38
2022-12-08T16:57:57.683Z,7.65
2022-12-08T17:00:26.751Z,8.80
2022-12-08T17:02:53.979Z,14.45
2022-12-08T17:05:23.595Z,10.48
2022-12-08T17:07:52.210Z,8.20
2022-12-08T17:10:23.605Z,7.63
2022-12-08T17:12:50.517Z,9.13
2022-12-08T17:15:20.497Z,6.47
2022-12-08T17:17:47.483Z,6.10
2022-12-08T17:20:17.695Z,6.18
2022-12-08T17:22:45.110Z,6.18
2022-12-08T17:25:13.566Z,9.75
2022-12-08T17:27:41.180Z,17.05
2022-12-08T17:30:11.283Z,29.42
2022-12-08T17:32:39.885Z,37.63
2022-12-08T17:35:07.670Z,40.95
2022-12-08T17:37:34.993Z,30.20
2022-12-08T17:40:02.138Z,24.90
2022-12-08T17:42:28.924Z,16.48
2022-12-08T17:44:55.685Z,13.07
2022-12-08T17:47:23.096Z,19.52
2022-12-08T17:49:49.962Z,14.77
2022-12-08T17:52:16.735Z,14.20
2022-12-08T17:54:43.407Z,15.63
2022-12-08T17:57:10.147Z,17.13
2022-12-08T17:59:36.843Z,21.92
2022-12-08T18:02:04.350Z,26.85
2022-12-08T18:04:31.325Z,17.58
2022-12-08T18:07:00.128Z,14.48
2022-12-08T18:09:27.201Z,33.65
2022-12-08T18:11:54.165Z,11.40
2022-12-08T18:14:20.961Z,13.10
2022-12-08T18:16:48.173Z,18.88
2022-12-08T18:19:15.994Z,18.60
2022-12-08T18:21:43.301Z,17.35
2022-12-08T18:24:17.569Z,18.92
2022-12-08T18:26:44.422Z,19.85
2022-12-08T18:29:12.943Z,14.60
2022-12-08T18:31:39.664Z,19.92
2022-12-08T18:34:06.594Z,17.75
2022-12-08T18:36:33.421Z,18.60
2022-12-08T18:39:00.107Z,21.13
2022-12-08T18:41:27.023Z,29.30
2022-12-08T18:43:55.425Z,18.33
2022-12-08T18:46:23.031Z,16.35
2022-12-08T18:48:51.168Z,25.15
2022-12-08T18:51:23.917Z,30.02
2022-12-08T18:56:27.821Z,44.85
2022-12-08T18:59:02.627Z,35.92
2022-12-08T19:01:31.219Z,44.20
2022-12-08T19:04:26.915Z,34.42
2022-12-08T19:06:46.184Z,22.17
2022-12-08T19:09:14.007Z,18.40
2022-12-08T19:11:41.154Z,24.58
2022-12-08T19:14:08.033Z,17.63
2022-12-08T19:16:35.160Z,15.90
2022-12-08T19:19:02.835Z,14.65
2022-12-08T19:21:30.058Z,16.05
2022-12-08T19:23:58.344Z,16.33
2022-12-08T19:26:27.077Z,19.83
2022-12-08T19:28:54.127Z,22.40
2022-12-08T19:31:20.990Z,19.85
2022-12-08T19:33:47.755Z,19.33
2022-12-08T19:36:16.901Z,20.63
2022-12-08T19:39:02.727Z,18.83
2022-12-08T19:41:49.104Z,16.65
2022-12-08T19:44:43.378Z,18.08
2022-12-08T19:47:10.278Z,19.42
2022-12-08T19:49:37.727Z,21.73
2022-12-08T19:52:05.465Z,16.48
2022-12-08T19:54:32.235Z,22.45
2022-12-08T19:56:58.903Z,19.85
2022-12-08T19:59:30.121Z,17.25
2022-12-08T20:01:58.444Z,20.85
2022-12-08T20:04:27.088Z,18.85
2022-12-08T20:06:55.462Z,22.92
2022-12-08T20:09:22.762Z,25.23
2022-12-08T20:11:50.767Z,21.80
2022-12-08T20:14:18.365Z,25.63
2022-12-08T20:16:45.136Z,24.73
2022-12-08T20:19:11.951Z,21.50
2022-12-08T20:21:39.898Z,23.95
2022-12-08T20:24:06.969Z,21.83
2022-12-08T20:26:33.901Z,23.90
2022-12-08T20:29:00.717Z,23.60
2022-12-08T20:31:29.425Z,22.17
2022-12-08T20:33:56.280Z,21.23
2022-12-08T20:36:23.413Z,27.27
2022-12-08T20:38:52.159Z,25.45
2022-12-08T20:41:20.119Z,25.25
2022-12-08T20:43:47.629Z,26.40
2022-12-08T20:46:16.785Z,21.08
2022-12-08T20:48:44.168Z,28.65
2022-12-08T20:51:18.891Z,26.63
2022-12-08T20:53:46.518Z,24.67
2022-12-08T20:56:19.167Z,26.38
2022-12-08T21:01:15.202Z,26.48
2022-12-08T21:03:43.710Z,29.95
2022-12-08T21:06:11.563Z,29.23
2022-12-08T21:08:39.341Z,26.42
2022-12-08T21:11:07.124Z,27.35
2022-12-08T21:13:33.986Z,28.52
2022-12-08T21:16:00.948Z,26.00
2022-12-08T21:18:27.960Z,25.23
2022-12-08T21:21:15.472Z,25.15
2022-12-08T21:23:42.817Z,26.15
2022-12-08T21:26:15.290Z,24.52
2022-12-08T21:28:42.635Z,24.70
2022-12-08T21:31:11.701Z,24.92
2022-12-08T21:33:38.930Z,23.52
2022-12-08T21:36:09.083Z,28.75
2022-12-08T21:38:37.506Z,29.80
2022-12-08T21:41:09.733Z,27.65
2022-12-08T21:43:37.222Z,28.55
2022-12-08T21:46:04.361Z,28.42
2022-12-08T21:48:31.308Z,26.30
2022-12-08T21:51:04.486Z,32.28
2022-12-08T21:53:31.418Z,28.38
2022-12-08T21:55:58.199Z,28.88
2022-12-08T21:58:26.395Z,30.55
2022-12-08T22:00:53.444Z,26.55
2022-12-08T22:03:20.363Z,30.38
2022-12-08T22:05:47.407Z,45.78
2022-12-08T22:08:14.346Z,36.10
2022-12-08T22:10:46.296Z,29.48
2022-12-08T22:13:13.191Z,29.77
2022-12-08T22:15:39.939Z,30.40
2022-12-08T22:18:06.979Z,30.80
2022-12-08T22:20:33.790Z,28.95
2022-12-08T22:23:00.961Z,29.00
2022-12-08T22:25:27.678Z,29.45
2022-12-08T22:27:54.420Z,30.42
2022-12-08T22:30:21.222Z,29.70
2022-12-08T22:32:48.026Z,29.55
2022-12-08T22:35:14.981Z,27.45
2022-12-08T22:37:41.874Z,30.65
2022-12-08T22:40:09.923Z,27.25
2022-12-08T22:42:36.983Z,29.88
2022-12-08T22:45:04.022Z,30.27
2022-12-08T22:47:30.792Z,30.42
2022-12-08T22:49:57.649Z,29.67
2022-12-08T22:52:24.365Z,32.95
2022-12-08T22:54:51.256Z,31.90
2022-12-08T22:57:18.178Z,30.95
2022-12-08T22:59:44.878Z,26.70
2022-12-08T23:02:12.856Z,31.95
2022-12-08T23:04:39.835Z,30.70
2022-12-08T23:07:06.596Z,33.88
2022-12-08T23:09:33.434Z,29.75
2022-12-08T23:12:00.083Z,30.00
2022-12-08T23:14:26.929Z,30.48
2022-12-08T23:16:53.773Z,35.25
2022-12-08T23:19:20.942Z,29.42
2022-12-08T23:21:47.662Z,30.52
2022-12-08T23:24:14.579Z,31.98
2022-12-08T23:26:42.945Z,29.33
2022-12-08T23:29:09.685Z,30.55
2022-12-08T23:31:38.149Z,27.10
2022-12-08T23:34:05.089Z,26.63
2022-12-08T23:36:32.031Z,28.30
2022-12-08T23:38:58.765Z,32.92
2022-12-08T23:41:25.431Z,33.53
2022-12-08T23:43:52.420Z,31.50
2022-12-08T23:46:21.299Z,33.10
2022-12-08T23:48:48.574Z,31.88
2022-12-08T23:51:16.062Z,29.55
2022-12-08T23:53:43.322Z,32.22
2022-12-08T23:56:13.526Z,34.92
2022-12-08T23:58:41.150Z,34.92
